Time;durP1;ratioP1;P1;durP2;ratioP2;P2;SDS_P1;SDS_P2;PMS_P1;PMS_P2;Temp;Humidity;BMP_temperature;BMP_pressure;BME280_temperature;BME280_humidity;BME280_pressure;Samples;Min_cycle;Max_cycle;Signal;HPM_P1;HPM_P2
2022/07/26 00:00:19;;;;;;;3.80;2.70;;;31.00;35.50;;;;;;5108474;27;45233;-75
2022/07/26 00:02:46;;;;;;;2.17;1.98;;;31.00;35.50;;;;;;5108508;27;45344;-75
2022/07/26 00:05:12;;;;;;;2.63;2.28;;;31.00;35.60;;;;;;5108181;27;45256;-74
2022/07/26 00:07:39;;;;;;;3.30;2.60;;;31.00;35.60;;;;;;5108357;27;46402;-75
2022/07/26 00:10:06;;;;;;;3.03;2.25;;;30.90;35.50;;;;;;5108454;27;45272;-74
2022/07/26 00:12:33;;;;;;;2.78;2.35;;;30.90;35.60;;;;;;5108582;27;45295;-75
2022/07/26 00:15:00;;;;;;;2.40;2.20;;;30.90;35.60;;;;;;5108450;27;45411;-74
2022/07/26 00:17:28;;;;;;;2.72;2.22;;;30.90;35.70;;;;;;5108038;27;46746;-75
2022/07/26 00:19:55;;;;;;;2.45;2.30;;;30.90;35.70;;;;;;5108411;27;45134;-74
2022/07/26 00:22:34;;;;;;;2.08;1.90;;;30.90;35.70;;;;;;5108393;27;45241;-75
2022/07/26 00:25:01;;;;;;;2.15;2.05;;;30.90;35.80;;;;;;5108504;27;45260;-75
2022/07/26 00:27:28;;;;;;;1.90;1.77;;;30.90;35.70;;;;;;5108106;27;45247;-75
2022/07/26 00:29:55;;;;;;;2.30;2.10;;;30.80;35.90;;;;;;5100963;27;45141;-74
2022/07/26 00:32:21;;;;;;;2.33;1.90;;;30.80;35.90;;;;;;5108085;27;45340;-75
2022/07/26 00:34:50;;;;;;;3.40;1.85;;;30.80;35.90;;;;;;5108331;27;45268;-74
2022/07/26 00:37:17;;;;;;;1.85;1.73;;;30.80;35.90;;;;;;5092043;27;45396;-74
2022/07/26 00:39:44;;;;;;;2.75;2.10;;;30.70;35.90;;;;;;5087263;28;45141;-75
2022/07/26 00:42:12;;;;;;;2.35;2.15;;;30.70;36.00;;;;;;5087482;28;45273;-74
2022/07/26 00:44:39;;;;;;;1.80;1.70;;;30.70;36.00;;;;;;5087667;28;45523;-74
2022/07/26 00:47:06;;;;;;;3.08;2.00;;;30.70;36.20;;;;;;5087189;28;45198;-74
2022/07/26 00:49:33;;;;;;;2.28;1.75;;;30.70;36.10;;;;;;5087159;27;45151;-74
2022/07/26 00:52:01;;;;;;;1.95;1.75;;;30.70;36.20;;;;;;5087374;28;45139;-74
2022/07/26 00:54:28;;;;;;;2.92;1.90;;;30.70;36.20;;;;;;5086732;28;45419;-72
2022/07/26 00:56:55;;;;;;;2.00;1.80;;;30.70;36.30;;;;;;5086661;28;45233;-75
2022/07/26 00:59:22;;;;;;;1.80;1.70;;;30.70;36.30;;;;;;5087053;28;45222;-75
2022/07/26 01:01:49;;;;;;;1.80;1.60;;;30.60;36.30;;;;;;5087402;28;45201;-74
2022/07/26 01:04:15;;;;;;;2.38;1.63;;;30.60;36.40;;;;;;5087580;28;45395;-74
2022/07/26 01:06:42;;;;;;;1.70;1.60;;;30.60;36.40;;;;;;5086827;28;45238;-74
2022/07/26 01:09:10;;;;;;;1.75;1.65;;;30.60;36.40;;;;;;5086972;28;45303;-74
2022/07/26 01:11:37;;;;;;;1.60;1.50;;;30.60;36.30;;;;;;5087172;28;45137;-74
2022/07/26 01:14:04;;;;;;;1.55;1.45;;;30.60;36.40;;;;;;5087254;28;45308;-74
2022/07/26 01:16:31;;;;;;;1.60;1.50;;;30.50;36.40;;;;;;5086859;28;46334;-74
2022/07/26 01:18:58;;;;;;;2.53;1.70;;;30.50;36.40;;;;;;5086956;28;45280;-74
2022/07/26 01:21:29;;;;;;;1.70;1.60;;;30.50;36.40;;;;;;5087067;28;45360;-75
2022/07/26 01:23:56;;;;;;;1.90;1.77;;;30.50;36.50;;;;;;5087270;28;45122;-74
2022/07/26 01:26:23;;;;;;;1.63;1.42;;;30.50;36.50;;;;;;5086701;28;46391;-74
2022/07/26 01:28:50;;;;;;;1.60;1.50;;;30.50;36.50;;;;;;5086630;28;45434;-74
2022/07/26 01:31:17;;;;;;;2.63;1.65;;;30.50;36.50;;;;;;5102523;27;45299;-74
2022/07/26 01:33:44;;;;;;;1.70;1.60;;;30.40;36.50;;;;;;5107566;27;45391;-75
2022/07/26 01:36:12;;;;;;;1.55;1.42;;;30.40;36.50;;;;;;5101187;27;46687;-74
2022/07/26 01:38:40;;;;;;;1.50;1.40;;;30.40;36.70;;;;;;5086334;28;45238;-74
2022/07/26 01:41:07;;;;;;;1.30;1.20;;;30.40;36.70;;;;;;5086309;28;45353;-73
2022/07/26 01:43:33;;;;;;;1.52;1.42;;;30.40;36.70;;;;;;5086202;28;45231;-74
2022/07/26 01:46:00;;;;;;;1.52;1.42;;;30.40;36.70;;;;;;5086745;28;47600;-74
2022/07/26 01:48:27;;;;;;;1.70;1.40;;;30.40;36.80;;;;;;5086520;28;45434;-74
2022/07/26 01:50:54;;;;;;;1.35;1.27;;;30.30;36.70;;;;;;5086620;28;45384;-74
2022/07/26 01:53:20;;;;;;;1.58;1.50;;;30.30;36.80;;;;;;5086699;28;45408;-74
2022/07/26 01:55:49;;;;;;;1.33;1.23;;;30.30;36.80;;;;;;5086420;28;46431;-74
2022/07/26 01:58:15;;;;;;;1.40;1.30;;;30.30;36.80;;;;;;5086604;28;45318;-75
2022/07/26 02:00:42;;;;;;;1.50;1.40;;;30.30;36.80;;;;;;5086814;27;45300;-74
2022/07/26 02:03:09;;;;;;;1.38;1.27;;;30.30;36.90;;;;;;5090105;28;45416;-74
2022/07/26 02:05:36;;;;;;;1.58;1.30;;;30.20;36.80;;;;;;5087137;28;45276;-74
2022/07/26 02:08:02;;;;;;;3.13;1.30;;;30.20;36.80;;;;;;5090051;28;45255;-74
2022/07/26 02:10:59;;;;;;;2.13;1.50;;;30.20;36.80;;;;;;5089896;28;45184;-74
2022/07/26 02:13:19;;;;;;;1.50;1.40;;;30.20;36.90;;;;;;5089537;28;45590;-74
2022/07/26 02:15:46;;;;;;;1.10;1.10;;;30.20;36.90;;;;;;5089587;28;46599;-74
2022/07/26 02:18:12;;;;;;;1.13;1.13;;;30.20;36.90;;;;;;5089620;28;45277;-74
2022/07/26 02:20:39;;;;;;;1.50;1.40;;;30.20;37.00;;;;;;5090056;28;45171;-74
2022/07/26 02:23:06;;;;;;;1.30;1.20;;;30.10;37.00;;;;;;5089923;28;45127;-75
2022/07/26 02:25:33;;;;;;;1.10;1.10;;;30.10;36.90;;;;;;5089376;28;45497;-74
2022/07/26 02:28:00;;;;;;;2.45;1.52;;;30.10;37.00;;;;;;5089631;28;45238;-74
2022/07/26 02:30:29;;;;;;;1.35;1.20;;;30.10;37.00;;;;;;5105006;27;45318;-74
2022/07/26 02:32:55;;;;;;;1.75;1.17;;;30.10;37.00;;;;;;5110160;27;45175;-73
2022/07/26 02:35:22;;;;;;;1.45;1.15;;;30.00;37.00;;;;;;5109082;27;45257;-74
2022/07/26 02:37:49;;;;;;;2.50;1.23;;;30.10;37.10;;;;;;5089971;27;45419;-74
2022/07/26 02:40:16;;;;;;;1.88;1.17;;;30.00;37.80;;;;;;5089379;28;45286;-74
2022/07/26 02:42:42;;;;;;;1.23;1.17;;;30.00;37.20;;;;;;5089501;28;45300;-74
2022/07/26 02:45:10;;;;;;;1.02;1.00;;;30.00;37.20;;;;;;5089181;28;46385;-74
2022/07/26 02:47:46;;;;;;;1.00;1.00;;;30.00;37.30;;;;;;5089040;28;45174;-74
2022/07/26 02:50:15;;;;;;;1.42;1.33;;;30.00;37.30;;;;;;5089244;28;45383;-74
2022/07/26 02:52:42;;;;;;;1.20;1.20;;;29.90;37.30;;;;;;5089299;28;45248;-74
2022/07/26 02:55:09;;;;;;;1.30;1.20;;;29.90;37.30;;;;;;5088962;28;46417;-74
2022/07/26 02:57:36;;;;;;;0.80;0.80;;;29.90;37.20;;;;;;5088926;28;45183;-74
2022/07/26 03:00:04;;;;;;;1.10;1.10;;;29.90;37.40;;;;;;5089235;28;45204;-74
2022/07/26 03:02:30;;;;;;;1.02;1.02;;;29.90;37.40;;;;;;5089410;28;45384;-74
2022/07/26 03:05:01;;;;;;;1.23;1.08;;;29.80;37.40;;;;;;5088934;28;45275;-74
2022/07/26 03:07:27;;;;;;;0.90;0.90;;;29.80;37.50;;;;;;5088719;28;45145;-74
2022/07/26 03:09:54;;;;;;;1.20;1.10;;;29.80;37.50;;;;;;5089031;28;45364;-74
2022/07/26 03:12:21;;;;;;;1.10;1.02;;;29.70;37.50;;;;;;5087919;28;45303;-74
2022/07/26 03:14:48;;;;;;;1.30;1.20;;;29.70;37.50;;;;;;5088613;28;46428;-74
2022/07/26 03:17:15;;;;;;;0.98;0.98;;;29.70;37.60;;;;;;5088591;28;45206;-75
2022/07/26 03:19:41;;;;;;;1.40;1.10;;;29.70;37.60;;;;;;5088847;28;45127;-74
2022/07/26 03:22:10;;;;;;;1.10;1.10;;;29.70;37.70;;;;;;5088945;28;45412;-74
2022/07/26 03:24:36;;;;;;;1.20;1.10;;;29.70;37.80;;;;;;5088134;28;45269;-74
2022/07/26 03:27:03;;;;;;;1.05;0.90;;;29.60;37.70;;;;;;5088538;28;45219;-74
2022/07/26 03:29:30;;;;;;;1.27;1.00;;;29.70;37.80;;;;;;5096021;27;45166;-74
2022/07/26 03:31:57;;;;;;;0.77;0.77;;;29.60;37.80;;;;;;5109413;27;45394;-74
2022/07/26 03:34:24;;;;;;;0.90;0.90;;;29.60;37.80;;;;;;5108908;27;45288;-74
2022/07/26 03:36:50;;;;;;;1.00;1.00;;;29.60;37.90;;;;;;5097182;27;45237;-74
2022/07/26 03:39:19;;;;;;;1.20;1.10;;;29.60;37.90;;;;;;5088109;28;45243;-74
2022/07/26 03:41:45;;;;;;;1.17;1.10;;;29.50;37.90;;;;;;5088640;28;45208;-74
2022/07/26 03:44:12;;;;;;;1.27;1.10;;;29.60;38.00;;;;;;5088142;28;45195;-74
2022/07/26 03:46:39;;;;;;;1.13;0.98;;;29.60;38.60;;;;;;5088282;28;45257;-74
2022/07/26 03:49:06;;;;;;;1.10;1.00;;;29.50;38.00;;;;;;5088241;28;45318;-74
2022/07/26 03:51:33;;;;;;;0.82;0.82;;;29.50;38.00;;;;;;5088451;28;45337;-74
2022/07/26 03:53:59;;;;;;;1.40;0.90;;;29.50;38.10;;;;;;5087945;28;46929;-74
2022/07/26 03:56:30;;;;;;;1.10;1.00;;;29.50;38.10;;;;;;5088212;28;45250;-74
2022/07/26 03:58:58;;;;;;;0.85;0.85;;;29.50;38.10;;;;;;5088319;28;45272;-74
2022/07/26 04:01:27;;;;;;;1.02;0.90;;;29.40;38.10;;;;;;5088521;28;45210;-74
2022/07/26 04:03:54;;;;;;;0.80;0.80;;;29.40;38.10;;;;;;5087823;28;45339;-74
2022/07/26 04:06:21;;;;;;;0.90;0.90;;;29.40;38.20;;;;;;5087799;28;45274;-73
2022/07/26 04:08:48;;;;;;;1.20;1.10;;;29.40;38.20;;;;;;5088026;28;45308;-73
2022/07/26 04:11:15;;;;;;;0.90;0.90;;;29.40;38.20;;;;;;5087529;28;45171;-74
2022/07/26 04:13:43;;;;;;;1.00;1.00;;;29.40;38.90;;;;;;5087422;28;45280;-74
2022/07/26 04:16:10;;;;;;;1.63;1.20;;;29.40;38.30;;;;;;5088002;28;45245;-74
2022/07/26 04:18:36;;;;;;;1.98;0.98;;;29.30;38.90;;;;;;5087768;28;45284;-74
2022/07/26 04:21:03;;;;;;;0.80;0.80;;;29.30;38.30;;;;;;5087969;28;45396;-74
2022/07/26 04:23:30;;;;;;;1.35;0.90;;;29.30;38.40;;;;;;5087031;27;45207;-74
2022/07/26 04:25:57;;;;;;;1.20;1.10;;;29.30;38.30;;;;;;5087522;28;45124;-74
2022/07/26 04:28:26;;;;;;;1.00;1.00;;;29.30;38.40;;;;;;5087839;28;45356;-74
2022/07/26 04:30:54;;;;;;;0.85;0.85;;;29.30;39.00;;;;;;5106924;27;45315;-74
2022/07/26 04:33:21;;;;;;;1.83;0.93;;;29.30;38.40;;;;;;5107909;27;45197;-74
2022/07/26 04:35:47;;;;;;;1.20;0.98;;;29.30;38.50;;;;;;5105233;27;45108;-74
2022/07/26 04:38:14;;;;;;;0.90;0.90;;;29.20;38.60;;;;;;5087197;28;45391;-74
2022/07/26 04:40:41;;;;;;;1.20;1.10;;;29.20;38.50;;;;;;5087592;28;45230;-74
2022/07/26 04:43:08;;;;;;;1.13;1.00;;;29.20;38.50;;;;;;5087121;28;45249;-74
2022/07/26 04:45:35;;;;;;;1.58;1.00;;;29.20;38.50;;;;;;5087199;28;45191;-74
2022/07/26 04:48:03;;;;;;;0.80;0.80;;;29.20;38.60;;;;;;5087481;28;45197;-74
2022/07/26 04:50:30;;;;;;;0.80;0.80;;;29.20;38.60;;;;;;5087726;28;45425;-74
2022/07/26 04:52:56;;;;;;;0.90;0.90;;;29.20;38.60;;;;;;5087248;28;47345;-74
2022/07/26 04:55:23;;;;;;;0.80;0.80;;;29.20;38.70;;;;;;5087263;28;45357;-74
2022/07/26 04:57:50;;;;;;;1.30;1.00;;;29.20;38.70;;;;;;5086453;28;45173;-74
2022/07/26 05:00:20;;;;;;;0.90;0.90;;;29.20;38.70;;;;;;5087279;28;45184;-74
2022/07/26 05:02:48;;;;;;;1.25;1.08;;;29.10;38.60;;;;;;5086968;28;46654;-74
2022/07/26 05:05:16;;;;;;;0.88;0.88;;;29.20;38.80;;;;;;5087256;28;45295;-74
2022/07/26 05:07:46;;;;;;;0.85;0.80;;;29.10;38.70;;;;;;5087150;28;45174;-74
2022/07/26 05:10:13;;;;;;;0.90;0.90;;;29.20;38.90;;;;;;5087276;28;45233;-74
2022/07/26 05:12:40;;;;;;;1.13;1.02;;;29.10;38.80;;;;;;5086937;28;46384;-74
2022/07/26 05:15:08;;;;;;;3.35;1.30;;;29.20;38.90;;;;;;5086918;28;45303;-74
2022/07/26 05:17:37;;;;;;;0.95;0.95;;;29.10;38.90;;;;;;5086737;28;45394;-74
2022/07/26 05:20:05;;;;;;;1.40;1.00;;;29.10;38.90;;;;;;5087188;28;45410;-74
2022/07/26 05:22:33;;;;;;;0.88;0.88;;;29.10;38.90;;;;;;5086655;28;46491;-74
2022/07/26 05:25:00;;;;;;;0.82;0.82;;;29.10;39.60;;;;;;5086825;28;45308;-74
2022/07/26 05:27:27;;;;;;;0.80;0.80;;;29.10;38.90;;;;;;5086927;28;45329;-74
2022/07/26 05:29:54;;;;;;;1.08;1.00;;;29.10;39.00;;;;;;5097437;27;45387;-74
2022/07/26 05:32:21;;;;;;;1.40;0.95;;;29.10;39.00;;;;;;5107307;27;45277;-74
2022/07/26 05:34:48;;;;;;;0.93;0.93;;;29.10;39.00;;;;;;5107227;27;45115;-74
2022/07/26 05:37:15;;;;;;;1.02;1.00;;;29.00;39.00;;;;;;5094998;27;45307;-74
2022/07/26 05:39:43;;;;;;;1.02;1.02;;;29.00;39.10;;;;;;5090342;28;45394;-74
2022/07/26 05:42:10;;;;;;;0.93;0.93;;;29.10;39.10;;;;;;5090101;28;46386;-74
2022/07/26 05:44:37;;;;;;;1.10;1.00;;;29.10;39.10;;;;;;5090336;28;45191;-74
2022/07/26 05:47:03;;;;;;;0.75;0.70;;;29.00;39.10;;;;;;5089742;28;45202;-73
2022/07/26 05:49:30;;;;;;;1.17;1.08;;;29.00;39.10;;;;;;5089909;28;45364;-74
2022/07/26 05:51:57;;;;;;;0.90;0.90;;;29.00;39.10;;;;;;5089967;28;45455;-74
2022/07/26 05:54:24;;;;;;;0.93;0.93;;;29.00;39.10;;;;;;5089753;28;45442;-74
2022/07/26 05:56:52;;;;;;;0.88;0.88;;;28.90;39.10;;;;;;5090034;28;45290;-74
2022/07/26 05:59:19;;;;;;;0.70;0.70;;;28.90;39.20;;;;;;5090483;28;45201;-74
2022/07/26 06:01:45;;;;;;;0.80;0.80;;;28.90;39.20;;;;;;5089805;28;46699;-74
2022/07/26 06:04:12;;;;;;;1.00;0.80;;;28.90;39.30;;;;;;5089894;28;45285;-74
2022/07/26 06:06:39;;;;;;;1.13;1.00;;;28.90;39.40;;;;;;5089877;28;45242;-74
2022/07/26 06:09:06;;;;;;;1.05;0.95;;;28.90;39.30;;;;;;5090336;28;45177;-74
2022/07/26 06:11:33;;;;;;;1.10;1.00;;;28.90;39.40;;;;;;5089408;28;47691;-74
2022/07/26 06:14:01;;;;;;;1.42;1.00;;;28.90;39.50;;;;;;5089766;28;45568;-74
2022/07/26 06:16:28;;;;;;;1.13;1.02;;;28.90;39.60;;;;;;5089864;28;45339;-74
2022/07/26 06:18:54;;;;;;;0.70;0.70;;;28.90;39.50;;;;;;5089975;28;45352;-74
2022/07/26 06:21:21;;;;;;;0.93;0.93;;;28.90;39.50;;;;;;5089711;28;45250;-74
2022/07/26 06:23:48;;;;;;;1.15;0.85;;;28.90;39.50;;;;;;5089688;28;45222;-74
2022/07/26 06:26:15;;;;;;;1.10;1.00;;;28.90;40.00;;;;;;5089502;28;45298;-74
2022/07/26 06:28:42;;;;;;;1.00;1.00;;;28.90;39.50;;;;;;5090186;27;45430;-74
2022/07/26 06:31:11;;;;;;;0.90;0.90;;;28.90;39.50;;;;;;5109818;27;46631;-73
2022/07/26 06:33:37;;;;;;;1.17;1.08;;;28.80;39.50;;;;;;5109273;27;45202;-74
2022/07/26 06:36:04;;;;;;;1.13;1.02;;;28.90;39.60;;;;;;5104870;27;45226;-74
2022/07/26 06:38:32;;;;;;;1.13;1.00;;;28.90;39.80;;;;;;5089365;28;45284;-74
2022/07/26 06:40:59;;;;;;;0.90;0.90;;;28.90;39.80;;;;;;5089701;28;47529;-74
2022/07/26 06:43:25;;;;;;;0.80;0.80;;;28.90;39.90;;;;;;5089315;28;45315;-74
2022/07/26 06:45:52;;;;;;;1.30;1.20;;;28.90;39.90;;;;;;5089346;28;45264;-74
2022/07/26 06:48:20;;;;;;;1.80;1.20;;;28.90;39.90;;;;;;5089246;27;45460;-74
2022/07/26 06:50:47;;;;;;;1.00;0.90;;;28.90;39.90;;;;;;5089260;28;47295;-74
2022/07/26 06:53:14;;;;;;;1.35;0.88;;;28.90;40.00;;;;;;5089232;28;45239;-74
2022/07/26 06:55:41;;;;;;;1.98;1.00;;;28.80;39.90;;;;;;5089137;28;45135;-74
2022/07/26 06:58:08;;;;;;;2.70;1.40;;;28.90;40.10;;;;;;5089606;28;45265;-74
2022/07/26 07:00:34;;;;;;;2.00;1.10;;;28.90;40.10;;;;;;5088973;28;45472;-74
2022/07/26 07:03:01;;;;;;;1.20;1.00;;;28.90;40.00;;;;;;5089059;28;45527;-74
2022/07/26 07:05:29;;;;;;;1.30;1.00;;;28.90;39.90;;;;;;5088975;28;45464;-74
2022/07/26 07:07:56;;;;;;;3.63;1.25;;;28.90;40.00;;;;;;5089226;28;45293;-74
2022/07/26 07:10:23;;;;;;;1.00;0.93;;;28.90;40.00;;;;;;5088528;28;47336;-74
2022/07/26 07:12:50;;;;;;;2.30;1.10;;;29.00;40.10;;;;;;5089002;28;45165;-74
2022/07/26 07:15:17;;;;;;;1.13;1.00;;;28.90;40.00;;;;;;5089098;28;45246;-74
2022/07/26 07:17:43;;;;;;;1.95;1.17;;;28.90;40.00;;;;;;5088646;28;45344;-74
2022/07/26 07:20:11;;;;;;;2.85;1.40;;;28.90;40.00;;;;;;5096803;27;45523;-74
2022/07/26 07:22:39;;;;;;;1.27;1.17;;;28.90;39.70;;;;;;5094644;27;45387;-74
2022/07/26 07:25:07;;;;;;;0.98;0.95;;;29.00;39.70;;;;;;5089361;27;45241;-74
2022/07/26 07:27:34;;;;;;;1.35;1.23;;;28.90;39.60;;;;;;5088036;28;45296;-74
2022/07/26 07:30:00;;;;;;;2.50;1.00;;;29.00;39.60;;;;;;5087763;28;45381;-74
2022/07/26 07:32:27;;;;;;;2.40;1.02;;;29.00;39.40;;;;;;5087332;28;45214;-74
2022/07/26 07:34:54;;;;;;;4.70;1.45;;;28.90;39.10;;;;;;5088182;28;45269;-74
2022/07/26 07:37:21;;;;;;;5.18;1.20;;;28.80;39.00;;;;;;5088595;28;45198;-74
2022/07/26 07:39:49;;;;;;;3.20;1.13;;;28.70;38.90;;;;;;5087845;28;45292;-74
2022/07/26 07:42:16;;;;;;;2.08;1.00;;;28.70;38.90;;;;;;5088319;28;45375;-74
2022/07/26 07:44:42;;;;;;;0.93;0.93;;;28.50;38.90;;;;;;5088424;28;45173;-74
2022/07/26 07:47:09;;;;;;;1.58;1.17;;;28.40;39.20;;;;;;5087441;28;45389;-74
2022/07/26 07:49:36;;;;;;;1.70;1.00;;;28.40;39.50;;;;;;5087044;28;46412;-74
2022/07/26 07:52:04;;;;;;;2.28;1.15;;;28.40;39.70;;;;;;5088120;28;45343;-74
2022/07/26 07:54:30;;;;;;;2.13;1.20;;;28.30;39.50;;;;;;5088299;28;45320;-74
2022/07/26 07:56:58;;;;;;;1.20;1.10;;;28.40;39.50;;;;;;5087898;28;45428;-74
2022/07/26 07:59:26;;;;;;;1.20;1.10;;;28.30;39.40;;;;;;5087263;27;46650;-74
2022/07/26 08:01:52;;;;;;;2.17;1.02;;;28.30;39.50;;;;;;5086869;28;45466;-74
2022/07/26 08:04:19;;;;;;;2.67;0.90;;;28.30;39.30;;;;;;5087499;28;45233;-72
2022/07/26 08:06:46;;;;;;;1.05;1.02;;;28.30;38.80;;;;;;5087884;28;45289;-74
2022/07/26 08:09:13;;;;;;;1.58;1.00;;;28.30;38.90;;;;;;5086977;28;46575;-74
2022/07/26 08:11:40;;;;;;;0.93;0.90;;;28.30;38.90;;;;;;5087959;28;45128;-74
2022/07/26 08:14:08;;;;;;;1.08;0.98;;;28.20;38.90;;;;;;5087848;28;45222;-74
2022/07/26 08:16:34;;;;;;;2.03;1.08;;;28.10;38.90;;;;;;5088111;28;45400;-74
2022/07/26 08:19:01;;;;;;;2.53;1.10;;;28.00;39.10;;;;;;5086447;28;46369;-74
2022/07/26 08:21:28;;;;;;;2.58;1.10;;;28.00;39.10;;;;;;5087228;28;45250;-74
2022/07/26 08:23:55;;;;;;;2.78;1.00;;;28.10;39.20;;;;;;5084977;28;45194;-74
2022/07/26 08:26:21;;;;;;;2.53;1.10;;;28.10;39.30;;;;;;5088142;28;45159;-74
2022/07/26 08:28:48;;;;;;;1.52;0.90;;;28.10;38.70;;;;;;5087607;28;46417;-75
2022/07/26 08:31:18;;;;;;;2.35;1.00;;;28.00;39.00;;;;;;5102675;27;45330;-74
2022/07/26 08:33:45;;;;;;;3.30;1.05;;;28.00;39.40;;;;;;5108414;27;45279;-74
2022/07/26 08:36:12;;;;;;;1.58;0.90;;;28.00;38.90;;;;;;5108356;27;45491;-74
2022/07/26 08:38:39;;;;;;;1.98;1.05;;;28.00;39.10;;;;;;5107461;27;46751;-74
2022/07/26 08:41:06;;;;;;;3.78;1.00;;;28.00;39.40;;;;;;5107863;27;45355;-74
2022/07/26 08:43:33;;;;;;;1.95;1.00;;;28.00;39.50;;;;;;5108139;27;45293;-74
2022/07/26 08:46:00;;;;;;;2.40;1.10;;;28.00;39.70;;;;;;5108293;27;45389;-74
2022/07/26 08:48:28;;;;;;;1.33;1.08;;;28.00;39.70;;;;;;5102413;27;45743;-74
2022/07/26 08:50:55;;;;;;;0.88;0.82;;;28.00;39.70;;;;;;5085417;28;45295;-74
2022/07/26 08:53:22;;;;;;;2.47;1.30;;;28.00;39.90;;;;;;5086657;28;45272;-74
2022/07/26 08:55:49;;;;;;;2.38;1.00;;;27.90;39.70;;;;;;5087360;28;45122;-74
2022/07/26 08:58:16;;;;;;;1.40;1.00;;;27.90;39.50;;;;;;5086827;28;45202;-74
2022/07/26 09:00:44;;;;;;;4.88;1.17;;;28.00;39.50;;;;;;5091590;27;45299;-74
2022/07/26 09:03:24;;;;;;;1.30;1.00;;;27.90;39.20;;;;;;5106712;27;45427;-74
2022/07/26 09:05:52;;;;;;;4.28;1.05;;;27.90;39.20;;;;;;5107988;27;45118;-74
2022/07/26 09:08:25;;;;;;;2.00;0.90;;;27.90;39.60;;;;;;5108055;27;46688;-74
2022/07/26 09:10:52;;;;;;;2.70;1.02;;;27.90;38.60;;;;;;5100459;27;45329;-74
2022/07/26 09:13:22;;;;;;;1.20;1.10;;;28.00;38.80;;;;;;5086137;28;45344;-73
2022/07/26 09:15:48;;;;;;;2.35;1.00;;;28.00;38.90;;;;;;5083782;28;45540;-73
2022/07/26 09:18:28;;;;;;;3.63;1.10;;;28.00;39.20;;;;;;5087270;27;46395;-74
2022/07/26 09:20:56;;;;;;;2.42;1.27;;;28.00;39.60;;;;;;5084997;27;45439;-73
2022/07/26 09:23:23;;;;;;;2.85;1.00;;;28.00;39.70;;;;;;5090399;27;45242;-74
2022/07/26 09:25:50;;;;;;;3.53;1.27;;;27.90;39.60;;;;;;5104801;27;45261;-74
2022/07/26 09:28:25;;;;;;;2.08;1.00;;;27.90;39.80;;;;;;5104409;27;46393;-74
2022/07/26 09:30:52;;;;;;;3.63;1.10;;;27.90;39.80;;;;;;5086120;27;45449;-74
2022/07/26 09:33:19;;;;;;;1.25;1.15;;;27.90;39.80;;;;;;5103943;27;45428;-74
2022/07/26 09:35:59;;;;;;;4.05;1.40;;;27.90;39.60;;;;;;5106984;27;45316;-74
2022/07/26 09:38:28;;;;;;;1.42;1.05;;;27.90;39.50;;;;;;5081817;27;46412;-74
2022/07/26 09:40:54;;;;;;;1.48;0.98;;;27.80;39.40;;;;;;5066076;28;45404;-74
2022/07/26 09:43:21;;;;;;;1.58;1.20;;;27.80;39.40;;;;;;5066323;28;45342;-73
2022/07/26 09:45:49;;;;;;;2.40;1.60;;;27.80;39.40;;;;;;5073468;28;45458;-73
2022/07/26 09:48:16;;;;;;;1.85;1.23;;;27.90;39.30;;;;;;5085554;28;46459;-73
2022/07/26 09:50:46;;;;;;;2.28;0.98;;;27.90;39.00;;;;;;5084847;28;45276;-73
2022/07/26 09:53:13;;;;;;;4.80;1.20;;;27.90;39.00;;;;;;5086685;28;45294;-73
2022/07/26 09:55:56;;;;;;;1.40;1.10;;;28.00;38.90;;;;;;5086063;28;45315;-73
2022/07/26 09:58:23;;;;;;;1.05;0.95;;;28.00;38.80;;;;;;5086368;28;46388;-72
2022/07/26 10:00:50;;;;;;;0.93;0.75;;;28.10;38.20;;;;;;5085543;28;45376;-74
2022/07/26 10:03:16;;;;;;;2.03;1.10;;;28.10;38.10;;;;;;5086478;28;45224;-73
2022/07/26 10:05:43;;;;;;;4.05;1.20;;;28.00;37.70;;;;;;5086570;28;45317;-74
2022/07/26 10:08:10;;;;;;;3.30;1.05;;;28.00;37.60;;;;;;5086253;28;45482;-74
2022/07/26 10:10:40;;;;;;;1.58;0.70;;;27.90;37.70;;;;;;5086229;28;45332;-74
2022/07/26 10:13:08;;;;;;;1.17;1.02;;;28.00;38.00;;;;;;5086466;28;45163;-74
2022/07/26 10:15:40;;;;;;;1.15;1.00;;;28.00;38.00;;;;;;5086522;28;45315;-74
2022/07/26 10:18:08;;;;;;;0.90;0.77;;;28.10;38.00;;;;;;5086139;28;47016;-74
2022/07/26 10:20:39;;;;;;;2.05;0.70;;;28.10;37.90;;;;;;5085936;28;45288;-74
2022/07/26 10:23:30;;;;;;;2.70;0.90;;;28.10;37.50;;;;;;5088597;27;45131;-74
2022/07/26 10:25:57;;;;;;;2.28;0.90;;;28.10;37.50;;;;;;5089829;28;45394;-74
2022/07/26 10:28:27;;;;;;;0.82;0.70;;;28.20;37.40;;;;;;5089636;28;45197;-74
2022/07/26 10:31:09;;;;;;;1.45;1.00;;;28.20;37.20;;;;;;5089213;28;45304;-74
2022/07/26 10:33:39;;;;;;;4.97;1.00;;;28.20;37.20;;;;;;5088670;28;45139;-74
2022/07/26 10:36:07;;;;;;;3.35;0.90;;;28.20;36.90;;;;;;5089625;28;45371;-74
2022/07/26 10:38:34;;;;;;;1.73;0.80;;;28.10;37.10;;;;;;5088803;28;46287;-74
2022/07/26 10:41:01;;;;;;;1.02;0.82;;;28.20;37.10;;;;;;5089275;28;45131;-74
2022/07/26 10:43:30;;;;;;;1.58;1.00;;;28.20;37.10;;;;;;5089511;28;45343;-74
2022/07/26 10:46:26;;;;;;;1.75;0.93;;;28.30;37.10;;;;;;5089535;28;45363;-74
2022/07/26 10:48:57;;;;;;;4.03;1.05;;;28.30;37.20;;;;;;5089179;28;47603;-74
2022/07/26 10:51:24;;;;;;;2.90;1.02;;;28.30;37.00;;;;;;5089047;28;45347;-74
2022/07/26 10:53:59;;;;;;;2.03;1.10;;;28.40;36.90;;;;;;5089183;28;45304;-74
2022/07/26 10:56:26;;;;;;;1.73;1.30;;;28.30;36.60;;;;;;5089361;28;45300;-74
2022/07/26 10:58:55;;;;;;;2.10;1.00;;;28.40;36.90;;;;;;5088909;28;45301;-74
2022/07/26 11:01:21;;;;;;;2.63;1.00;;;28.40;36.70;;;;;;5089087;28;45186;-74
2022/07/26 11:03:48;;;;;;;2.38;1.15;;;28.30;36.40;;;;;;5089109;28;45322;-74
2022/07/26 11:06:16;;;;;;;0.73;0.73;;;28.40;36.50;;;;;;5089202;28;45475;-74
2022/07/26 11:08:43;;;;;;;2.90;1.02;;;28.40;36.50;;;;;;5088589;28;46412;-74
2022/07/26 11:11:10;;;;;;;1.73;1.00;;;28.40;36.10;;;;;;5089011;28;45166;-74
2022/07/26 11:13:36;;;;;;;2.40;1.00;;;28.50;36.20;;;;;;5088855;28;45133;-74
2022/07/26 11:16:06;;;;;;;5.45;1.30;;;28.50;36.00;;;;;;5087936;28;45583;-74
2022/07/26 11:18:34;;;;;;;1.30;0.90;;;28.50;35.70;;;;;;5087987;28;45484;-75
2022/07/26 11:21:09;;;;;;;2.15;0.90;;;28.50;35.70;;;;;;5088519;28;45197;-75
2022/07/26 11:23:37;;;;;;;3.70;1.63;;;28.60;35.40;;;;;;5088792;28;45197;-75
2022/07/26 11:26:09;;;;;;;3.20;1.00;;;28.70;34.90;;;;;;5088923;28;45393;-74
2022/07/26 11:28:54;;;;;;;1.80;0.90;;;28.70;34.80;;;;;;5087863;28;45203;-74
2022/07/26 11:31:24;;;;;;;3.67;1.05;;;28.60;35.10;;;;;;5067966;28;45199;-74
2022/07/26 11:33:51;;;;;;;0.95;0.90;;;28.50;35.10;;;;;;5067070;28;45380;-74
2022/07/26 11:36:19;;;;;;;1.48;0.90;;;28.60;34.90;;;;;;5075112;28;45264;-74
2022/07/26 11:38:47;;;;;;;2.22;1.38;;;28.60;34.90;;;;;;5081997;28;45651;-73
2022/07/26 11:41:15;;;;;;;4.63;0.88;;;28.60;35.00;;;;;;5088296;28;45259;-74
2022/07/26 11:43:42;;;;;;;1.65;1.00;;;28.70;34.90;;;;;;5088466;28;45286;-74
2022/07/26 11:46:08;;;;;;;1.50;1.08;;;28.80;34.80;;;;;;5088621;28;45273;-74
2022/07/26 11:48:37;;;;;;;1.63;1.00;;;29.00;34.50;;;;;;5072993;28;45453;-74
2022/07/26 11:51:10;;;;;;;2.80;0.93;;;29.10;34.30;;;;;;5088117;28;45277;-74
2022/07/26 11:53:37;;;;;;;1.50;0.90;;;29.10;35.10;;;;;;5088585;28;45178;-74
2022/07/26 11:56:12;;;;;;;1.65;0.88;;;29.10;34.60;;;;;;5088499;28;45314;-73
2022/07/26 11:58:39;;;;;;;1.13;1.00;;;29.20;34.50;;;;;;5088292;28;45313;-74
2022/07/26 12:01:06;;;;;;;2.95;1.05;;;29.20;34.50;;;;;;5088332;28;45297;-75
2022/07/26 12:03:35;;;;;;;3.88;1.00;;;29.10;34.30;;;;;;5088360;28;45310;-75
2022/07/26 12:06:03;;;;;;;4.70;0.90;;;29.00;34.30;;;;;;5088412;28;45435;-74
2022/07/26 12:08:39;;;;;;;3.75;0.90;;;29.10;34.90;;;;;;5088349;28;45381;-74
2022/07/26 12:11:06;;;;;;;3.53;1.20;;;29.00;34.10;;;;;;5088075;28;45300;-74
2022/07/26 12:13:33;;;;;;;4.97;1.33;;;29.00;34.10;;;;;;5088800;28;45288;-74
2022/07/26 12:16:00;;;;;;;3.20;1.10;;;29.10;34.00;;;;;;5088589;28;45193;-75
2022/07/26 12:18:27;;;;;;;3.97;0.80;;;29.20;34.00;;;;;;5088672;28;46256;-75
2022/07/26 12:21:02;;;;;;;2.70;1.00;;;29.20;34.00;;;;;;5088593;28;45332;-74
2022/07/26 12:23:40;;;;;;;1.15;0.90;;;29.30;33.80;;;;;;5088709;28;45441;-74
2022/07/26 12:26:19;;;;;;;1.20;0.90;;;29.30;33.60;;;;;;5088525;28;44735;-74
2022/07/26 12:28:46;;;;;;;2.10;0.90;;;29.30;33.60;;;;;;5088125;28;47545;-74
2022/07/26 12:31:26;;;;;;;1.05;0.93;;;29.40;33.30;;;;;;5087953;28;45253;-74
2022/07/26 12:33:53;;;;;;;3.17;0.85;;;29.50;33.30;;;;;;5088156;28;45300;-74
2022/07/26 12:36:22;;;;;;;2.20;1.23;;;29.60;33.40;;;;;;5087551;28;45208;-74
2022/07/26 12:38:51;;;;;;;1.33;0.80;;;29.60;32.80;;;;;;5087066;28;45430;-74
2022/07/26 12:41:31;;;;;;;0.95;0.70;;;29.60;33.00;;;;;;5088038;28;45331;-73
2022/07/26 12:43:58;;;;;;;3.78;0.95;;;29.60;33.20;;;;;;5087634;28;45169;-74
2022/07/26 12:46:25;;;;;;;2.85;0.95;;;29.70;33.30;;;;;;5087821;28;45320;-74
2022/07/26 12:48:51;;;;;;;2.30;1.60;;;29.70;33.00;;;;;;5087496;28;46680;-74
2022/07/26 12:51:18;;;;;;;1.58;1.10;;;29.60;33.20;;;;;;5071620;28;45384;-74